Time;durP1;ratioP1;P1;durP2;ratioP2;P2;SDS_P1;SDS_P2;PMS_P1;PMS_P2;Temp;Humidity;BMP_temperature;BMP_pressure;BME280_temperature;BME280_humidity;BME280_pressure;Samples;Min_cycle;Max_cycle;Signal;HPM_P1;HPM_P2
2023/04/01 00:01:30;;;;;;;1.75;1.50;;;8.90;99.90;;;;;;5099554;28;20032;-73
2023/04/01 00:03:56;;;;;;;1.50;1.42;;;9.00;99.90;;;;;;5099321;28;20042;-73
2023/04/01 00:06:22;;;;;;;1.40;1.17;;;9.00;99.90;;;;;;5097798;28;20085;-72
2023/04/01 00:08:48;;;;;;;0.10;0.10;;;8.90;99.90;;;;;;5100643;28;20365;-72
2023/04/01 00:11:14;;;;;;;0.10;0.10;;;8.80;99.90;;;;;;5097321;28;20028;-72
2023/04/01 00:13:40;;;;;;;0.32;0.32;;;8.60;99.90;;;;;;5089203;28;20031;-73
2023/04/01 00:16:07;;;;;;;0.30;0.30;;;8.50;99.90;;;;;;5093914;28;20090;-73
2023/04/01 00:18:33;;;;;;;1.02;1.02;;;8.70;99.90;;;;;;5093682;28;20073;-73
2023/04/01 00:20:59;;;;;;;4.43;0.63;;;8.50;99.90;;;;;;5088939;28;20032;-73
2023/04/01 00:23:25;;;;;;;20.27;0.50;;;8.70;99.90;;;;;;5095370;28;20023;-73
2023/04/01 00:25:50;;;;;;;1.55;1.45;;;8.80;99.90;;;;;;5100298;28;20043;-74
2023/04/01 00:28:18;;;;;;;1.80;0.43;;;8.90;99.90;;;;;;5089765;28;20040;-73
2023/04/01 00:30:44;;;;;;;0.73;0.73;;;8.80;99.90;;;;;;5096153;28;20127;-74
2023/04/01 00:33:10;;;;;;;0.10;0.10;;;8.80;99.90;;;;;;5096270;28;20180;-75
2023/04/01 00:35:36;;;;;;;2.60;2.27;;;8.50;99.90;;;;;;5083981;28;20024;-75
2023/04/01 00:38:02;;;;;;;9.00;1.13;;;8.20;99.90;;;;;;5096534;28;20589;-73
2023/04/01 00:40:36;;;;;;;0.10;0.10;;;8.10;99.90;;;;;;5077189;28;20155;-73
2023/04/01 00:43:03;;;;;;;0.35;0.35;;;8.20;99.90;;;;;;5094160;28;20032;-74
2023/04/01 00:45:32;;;;;;;1.38;0.98;;;8.50;99.90;;;;;;5088167;28;20067;-74
2023/04/01 00:48:01;;;;;;;0.30;0.30;;;8.50;99.90;;;;;;5096638;28;20055;-73
2023/04/01 00:50:28;;;;;;;0.30;0.30;;;8.50;99.90;;;;;;5091596;28;20032;-74
2023/04/01 00:52:54;;;;;;;1.30;1.25;;;8.50;99.90;;;;;;5097920;28;20027;-74
2023/04/01 00:55:23;;;;;;;0.68;0.68;;;8.60;99.90;;;;;;5079219;28;20089;-73
2023/04/01 00:57:52;;;;;;;0.45;0.45;;;8.70;99.90;;;;;;5082801;28;20101;-73
2023/04/01 01:00:18;;;;;;;0.25;0.25;;;8.70;99.90;;;;;;5094853;28;20089;-73
2023/04/01 01:02:46;;;;;;;1.65;1.55;;;8.70;99.90;;;;;;5096639;28;20731;-73
2023/04/01 01:05:17;;;;;;;1.08;0.82;;;8.80;99.90;;;;;;5101612;28;20118;-73
2023/04/01 01:08:16;;;;;;;0.10;0.10;;;8.60;99.90;;;;;;5104343;28;20508;-74
2023/04/01 01:10:47;;;;;;;0.50;0.50;;;8.60;99.90;;;;;;5099716;28;20487;-74
2023/04/01 01:13:42;;;;;;;0.10;0.10;;;8.70;99.90;;;;;;5103551;28;20058;-73
2023/04/01 01:16:18;;;;;;;0.10;0.10;;;8.70;99.90;;;;;;5093353;28;20023;-73
2023/04/01 01:18:59;;;;;;;0.22;0.22;;;8.80;99.90;;;;;;5100165;28;20065;-73
2023/04/01 01:21:46;;;;;;;1.25;1.25;;;8.70;99.90;;;;;;5100709;28;20024;-74
2023/04/01 01:24:49;;;;;;;0.63;0.63;;;8.70;99.90;;;;;;5077453;28;20127;-72
2023/04/01 01:27:20;;;;;;;0.20;0.20;;;8.80;99.90;;;;;;5093691;28;20061;-74
2023/04/01 01:30:09;;;;;;;2.17;1.65;;;8.90;99.90;;;;;;5102860;28;20042;-73
2023/04/01 01:33:21;;;;;;;0.10;0.10;;;8.80;99.90;;;;;;5093899;28;20031;-75
2023/04/01 01:35:48;;;;;;;0.47;0.47;;;8.70;99.90;;;;;;5060298;28;20036;-74
2023/04/01 01:38:22;;;;;;;0.55;0.55;;;8.80;99.90;;;;;;5099370;28;20024;-75
2023/04/01 01:40:53;;;;;;;0.60;0.55;;;8.80;99.90;;;;;;5090455;28;20056;-72
2023/04/01 01:43:23;;;;;;;1.63;1.52;;;8.80;99.90;;;;;;5100336;28;20115;-73
2023/04/01 01:45:56;;;;;;;0.63;0.63;;;8.90;99.90;;;;;;5089993;28;20032;-73
2023/04/01 01:48:24;;;;;;;0.77;0.77;;;8.80;99.90;;;;;;5099577;28;20114;-73
2023/04/01 01:50:50;;;;;;;1.17;1.10;;;8.80;99.90;;;;;;5092519;28;20034;-74
2023/04/01 01:53:16;;;;;;;4.28;1.85;;;8.80;99.90;;;;;;5073445;28;20126;-74
2023/04/01 01:55:45;;;;;;;4.22;1.08;;;8.80;99.90;;;;;;5079554;28;20114;-73
2023/04/01 01:58:24;;;;;;;0.40;0.40;;;8.90;99.90;;;;;;5099302;28;20031;-72
2023/04/01 02:00:57;;;;;;;0.30;0.30;;;8.80;99.90;;;;;;5073053;28;20482;-75
2023/04/01 02:03:27;;;;;;;7.18;2.38;;;8.80;99.90;;;;;;5100238;28;20064;-72
2023/04/01 02:05:56;;;;;;;0.63;0.63;;;8.80;99.90;;;;;;5093834;28;20495;-72
2023/04/01 02:08:28;;;;;;;11.25;3.40;;;8.80;99.90;;;;;;5103612;28;20050;-74
2023/04/01 02:11:05;;;;;;;1.00;0.63;;;8.80;99.90;;;;;;5092382;28;20027;-73
2023/04/01 02:13:40;;;;;;;2.03;1.92;;;8.80;99.90;;;;;;5080284;28;20524;-72
2023/04/01 02:16:12;;;;;;;1.90;1.00;;;8.80;99.90;;;;;;5092467;28;20479;-73
2023/04/01 02:18:39;;;;;;;0.22;0.22;;;8.90;99.90;;;;;;5096377;28;20635;-73
2023/04/01 02:21:07;;;;;;;0.65;0.65;;;8.80;99.90;;;;;;5081930;28;20041;-73
2023/04/01 02:23:35;;;;;;;0.10;0.10;;;8.80;99.90;;;;;;5098083;27;20039;-72
2023/04/01 02:26:03;;;;;;;2.25;1.75;;;8.80;99.90;;;;;;5087875;28;20024;-75
2023/04/01 02:28:31;;;;;;;0.10;0.10;;;8.80;99.90;;;;;;5088404;28;20081;-73
2023/04/01 02:31:00;;;;;;;0.10;0.10;;;8.80;99.90;;;;;;5092611;28;20031;-75
2023/04/01 02:33:27;;;;;;;0.17;0.17;;;8.70;99.90;;;;;;5093549;28;20054;-72
2023/04/01 02:35:53;;;;;;;0.50;0.50;;;8.70;99.90;;;;;;5090535;28;20103;-73
2023/04/01 02:38:18;;;;;;;0.10;0.10;;;8.60;99.90;;;;;;5079734;28;20142;-74
2023/04/01 02:40:48;;;;;;;0.52;0.52;;;8.60;99.90;;;;;;5095191;28;20028;-73
2023/04/01 02:43:14;;;;;;;9.38;2.85;;;8.50;99.90;;;;;;5088143;28;20032;-73
2023/04/01 02:45:40;;;;;;;0.55;0.55;;;8.40;99.90;;;;;;5102305;28;20031;-73
2023/04/01 02:48:06;;;;;;;0.55;0.55;;;8.40;99.90;;;;;;5090269;28;20071;-73
2023/04/01 02:50:32;;;;;;;0.73;0.68;;;8.30;99.90;;;;;;5090553;28;20512;-74
2023/04/01 02:52:57;;;;;;;2.15;1.02;;;8.30;99.90;;;;;;5074441;28;20071;-73
2023/04/01 02:55:23;;;;;;;0.20;0.20;;;8.20;99.90;;;;;;5078697;28;20104;-73
2023/04/01 02:57:48;;;;;;;0.32;0.32;;;8.20;99.90;;;;;;5094457;28;20032;-74
2023/04/01 03:00:15;;;;;;;11.35;2.70;;;8.20;99.90;;;;;;5068379;28;20869;-73
2023/04/01 03:02:41;;;;;;;1.55;1.45;;;8.20;99.90;;;;;;5097789;28;20081;-72
2023/04/01 03:05:07;;;;;;;1.08;0.98;;;8.30;99.90;;;;;;5095245;28;20048;-72
2023/04/01 03:07:33;;;;;;;1.90;1.45;;;8.30;99.90;;;;;;5092373;28;20035;-73
2023/04/01 03:09:58;;;;;;;28.97;2.70;;;8.30;99.90;;;;;;5100200;28;20131;-74
2023/04/01 03:12:24;;;;;;;1.30;1.20;;;8.40;99.90;;;;;;5072041;28;20123;-73
2023/04/01 03:14:50;;;;;;;1.08;1.05;;;8.30;99.90;;;;;;5097912;28;20035;-73
2023/04/01 03:17:16;;;;;;;0.10;0.10;;;8.30;99.90;;;;;;5094130;28;20066;-73
2023/04/01 03:19:41;;;;;;;0.63;0.63;;;8.30;99.90;;;;;;5096228;28;20035;-73
2023/04/01 03:22:10;;;;;;;0.90;0.22;;;8.30;99.90;;;;;;5098681;28;20024;-74
2023/04/01 03:24:36;;;;;;;1.25;1.17;;;8.30;99.90;;;;;;5094179;28;20057;-74
2023/04/01 03:27:01;;;;;;;13.57;1.55;;;8.20;99.90;;;;;;5098759;28;20036;-73
2023/04/01 03:29:27;;;;;;;0.32;0.32;;;8.30;99.90;;;;;;5099746;28;20479;-73
2023/04/01 03:31:53;;;;;;;0.10;0.10;;;8.20;99.90;;;;;;5092390;28;20550;-73
2023/04/01 03:34:18;;;;;;;9.57;1.90;;;8.30;99.90;;;;;;5092362;28;20051;-74
2023/04/01 03:36:44;;;;;;;2.05;1.75;;;8.30;99.90;;;;;;5097654;28;20028;-74
2023/04/01 03:39:10;;;;;;;0.88;0.88;;;8.40;99.90;;;;;;5086298;28;20093;-75
2023/04/01 03:41:37;;;;;;;0.85;0.45;;;8.40;99.90;;;;;;5068524;28;20057;-73
2023/04/01 03:44:03;;;;;;;1.15;0.47;;;8.50;99.90;;;;;;5096057;28;20063;-73
2023/04/01 03:46:29;;;;;;;4.88;0.52;;;8.40;99.90;;;;;;5089847;28;20512;-73
2023/04/01 03:48:54;;;;;;;1.70;1.63;;;8.40;99.90;;;;;;5076289;28;20480;-74
2023/04/01 03:51:20;;;;;;;1.15;1.13;;;8.60;99.90;;;;;;5096281;28;20028;-73
2023/04/01 03:53:46;;;;;;;2.88;2.63;;;8.50;99.90;;;;;;5092379;28;20043;-74
2023/04/01 03:56:11;;;;;;;0.90;0.90;;;8.40;99.90;;;;;;5097686;28;20028;-72
2023/04/01 03:58:38;;;;;;;14.23;2.05;;;8.40;99.90;;;;;;5099051;28;20028;-74
2023/04/01 04:01:20;;;;;;;0.52;0.52;;;8.40;99.90;;;;;;5093569;28;20045;-75
2023/04/01 04:03:46;;;;;;;1.10;1.00;;;8.40;99.90;;;;;;5094917;28;20039;-73
2023/04/01 04:06:16;;;;;;;0.60;0.57;;;8.40;99.90;;;;;;5099379;28;20039;-74
2023/04/01 04:08:42;;;;;;;1.60;1.13;;;8.30;99.90;;;;;;5099395;28;20066;-72
2023/04/01 04:11:08;;;;;;;2.80;1.00;;;8.40;99.90;;;;;;5095616;28;20036;-74
2023/04/01 04:13:35;;;;;;;3.78;0.75;;;8.50;99.90;;;;;;5100209;28;20034;-73
2023/04/01 04:16:02;;;;;;;2.00;1.85;;;8.60;99.90;;;;;;5101557;28;20263;-74
2023/04/01 04:18:30;;;;;;;3.00;1.52;;;8.60;99.90;;;;;;5093098;28;20533;-74
2023/04/01 04:20:55;;;;;;;0.30;0.30;;;8.50;99.90;;;;;;5097179;28;20027;-73
2023/04/01 04:23:21;;;;;;;0.10;0.10;;;8.40;99.90;;;;;;5103072;28;20414;-74
2023/04/01 04:26:03;;;;;;;2.13;1.42;;;8.30;99.90;;;;;;5104883;28;20889;-73
2023/04/01 04:28:29;;;;;;;0.10;0.10;;;8.20;99.90;;;;;;5092813;28;20099;-72
2023/04/01 04:30:55;;;;;;;0.32;0.32;;;8.40;99.90;;;;;;5100070;28;20032;-75
2023/04/01 04:33:21;;;;;;;0.65;0.65;;;8.40;99.90;;;;;;5099174;28;20058;-74
2023/04/01 04:35:47;;;;;;;2.03;1.83;;;8.30;99.90;;;;;;5099667;28;20491;-72
2023/04/01 04:38:13;;;;;;;0.63;0.63;;;8.30;99.90;;;;;;5084815;28;20127;-72
2023/04/01 04:40:40;;;;;;;0.17;0.17;;;8.30;99.90;;;;;;5099426;28;20035;-72
2023/04/01 04:43:06;;;;;;;2.17;1.60;;;8.20;99.90;;;;;;5097686;28;20051;-73
2023/04/01 04:45:32;;;;;;;0.50;0.50;;;8.20;99.90;;;;;;5102885;28;20054;-73
2023/04/01 04:47:58;;;;;;;1.45;1.13;;;8.20;99.90;;;;;;5099243;28;20027;-73
2023/04/01 04:50:25;;;;;;;0.20;0.20;;;8.20;99.90;;;;;;5101929;28;20539;-74
2023/04/01 04:52:51;;;;;;;5.18;1.85;;;8.20;99.90;;;;;;5093391;28;20124;-75
2023/04/01 04:55:17;;;;;;;0.10;0.10;;;8.20;99.90;;;;;;5100135;28;20040;-73
2023/04/01 04:57:42;;;;;;;10.00;1.17;;;8.30;99.90;;;;;;5089807;28;20580;-74
2023/04/01 05:00:10;;;;;;;0.00;0.00;;;8.20;99.90;;;;;;5103637;28;20035;-73
2023/04/01 05:02:36;;;;;;;0.82;0.82;;;8.30;99.90;;;;;;5103972;28;20026;-73
2023/04/01 05:05:01;;;;;;;0.57;0.57;;;8.30;99.90;;;;;;5094438;28;20106;-73
2023/04/01 05:07:27;;;;;;;3.05;0.57;;;8.20;99.90;;;;;;5095425;28;20028;-73
2023/04/01 05:09:53;;;;;;;0.55;0.55;;;8.10;99.90;;;;;;5102812;28;20024;-74
2023/04/01 05:12:18;;;;;;;0.55;0.52;;;8.10;99.90;;;;;;5102387;28;20433;-72
2023/04/01 05:14:44;;;;;;;0.47;0.47;;;8.20;99.90;;;;;;5087476;28;20562;-75
2023/04/01 05:17:12;;;;;;;0.17;0.17;;;8.20;99.90;;;;;;5098285;28;20034;-74
2023/04/01 05:19:38;;;;;;;0.20;0.20;;;8.20;99.90;;;;;;5075643;28;20321;-75
2023/04/01 05:22:05;;;;;;;0.17;0.17;;;8.20;99.90;;;;;;5098148;28;20568;-74
2023/04/01 05:24:31;;;;;;;2.80;1.48;;;8.20;99.90;;;;;;5093029;28;20069;-74
2023/04/01 05:26:57;;;;;;;0.40;0.40;;;8.20;99.90;;;;;;5099761;28;20057;-72
2023/04/01 05:29:24;;;;;;;1.95;1.85;;;8.20;99.90;;;;;;5080081;28;20038;-73
2023/04/01 05:31:50;;;;;;;1.05;0.95;;;8.30;99.90;;;;;;5077830;28;20031;-73
2023/04/01 05:34:15;;;;;;;0.55;0.50;;;8.30;99.90;;;;;;5091913;28;20439;-75
2023/04/01 05:36:42;;;;;;;0.10;0.10;;;8.40;99.90;;;;;;5104114;28;20564;-74
2023/04/01 05:39:08;;;;;;;7.03;0.85;;;8.40;99.90;;;;;;5090066;28;20273;-73
2023/04/01 05:41:38;;;;;;;0.30;0.30;;;8.40;99.90;;;;;;5090223;28;21004;-73
2023/04/01 05:44:05;;;;;;;0.30;0.30;;;8.40;99.90;;;;;;5094133;28;20036;-73
2023/04/01 05:46:30;;;;;;;;;;;8.30;99.90;;;;;;5095508;28;20035;-74
2023/04/01 05:48:57;;;;;;;0.57;0.57;;;8.50;99.90;;;;;;5091157;28;19910;-73
2023/04/01 05:51:22;;;;;;;0.33;0.33;;;8.50;99.90;;;;;;5101450;28;20023;-73
2023/04/01 05:53:48;;;;;;;5.07;1.17;;;8.50;99.90;;;;;;5100177;28;21483;-74
2023/04/01 05:56:14;;;;;;;2.70;1.17;;;8.60;99.90;;;;;;5103566;28;20065;-74
2023/04/01 05:58:40;;;;;;;1.10;1.10;;;8.50;99.90;;;;;;5093798;28;20035;-73
2023/04/01 06:01:09;;;;;;;0.82;0.73;;;8.50;99.90;;;;;;5099554;28;20076;-73
2023/04/01 06:03:35;;;;;;;6.93;1.05;;;8.60;99.90;;;;;;5099968;28;20027;-73
2023/04/01 06:06:01;;;;;;;0.57;0.57;;;8.50;99.90;;;;;;5100942;28;20031;-73
2023/04/01 06:08:27;;;;;;;0.17;0.17;;;8.50;99.90;;;;;;5098260;28;20031;-73
2023/04/01 06:11:18;;;;;;;1.83;1.73;;;8.40;99.90;;;;;;5072689;28;20023;-75
2023/04/01 06:14:04;;;;;;;0.15;0.15;;;8.30;99.90;;;;;;5098332;28;20059;-74
2023/04/01 06:17:02;;;;;;;8.25;3.13;;;8.40;99.90;;;;;;5100803;28;20030;-73
2023/04/01 06:19:44;;;;;;;0.75;0.75;;;8.40;99.90;;;;;;5093327;28;20509;-72
2023/04/01 06:22:24;;;;;;;16.98;1.30;;;8.20;99.90;;;;;;5097274;28;20020;-74
2023/04/01 06:24:59;;;;;;;2.40;1.80;;;8.20;99.90;;;;;;5094726;28;20063;-73
2023/04/01 06:27:53;;;;;;;4.03;0.85;;;8.20;99.90;;;;;;5096627;28;20115;-72
2023/04/01 06:30:31;;;;;;;1.20;1.10;;;8.20;99.90;;;;;;5090028;28;20040;-73
2023/04/01 06:33:15;;;;;;;1.50;1.40;;;8.20;99.90;;;;;;5087670;28;20044;-72
2023/04/01 06:35:58;;;;;;;0.32;0.32;;;8.30;99.90;;;;;;5101083;28;20049;-73
2023/04/01 06:39:13;;;;;;;0.20;0.20;;;8.30;99.90;;;;;;5101790;28;20112;-74
2023/04/01 06:41:55;;;;;;;0.97;0.97;;;8.30;99.90;;;;;;5053283;28;20044;-74
2023/04/01 06:44:31;;;;;;;1.75;1.27;;;8.40;99.90;;;;;;5098591;28;20027;-74
2023/04/01 06:47:03;;;;;;;0.35;0.35;;;8.30;99.90;;;;;;5097937;28;20031;-74
2023/04/01 06:50:01;;;;;;;0.10;0.10;;;8.30;99.90;;;;;;5084418;28;20050;-74
2023/04/01 06:52:44;;;;;;;0.40;0.40;;;8.30;99.90;;;;;;5093261;28;20383;-74
2023/04/01 06:55:35;;;;;;;0.10;0.10;;;8.30;99.90;;;;;;5088180;28;20036;-74
2023/04/01 06:58:05;;;;;;;0.08;0.08;;;8.30;99.90;;;;;;5096617;28;20119;-72
2023/04/01 07:00:44;;;;;;;0.75;0.75;;;8.20;99.90;;;;;;5084482;28;20036;-73
2023/04/01 07:03:21;;;;;;;0.30;0.30;;;8.30;99.90;;;;;;5091694;28;20035;-72
2023/04/01 07:05:47;;;;;;;1.00;0.95;;;8.20;99.90;;;;;;5102344;28;20035;-72
2023/04/01 07:08:20;;;;;;;1.50;0.88;;;8.20;99.90;;;;;;5089967;28;20032;-72
2023/04/01 07:10:54;;;;;;;1.27;1.27;;;8.30;99.90;;;;;;5087636;28;20032;-74
2023/04/01 07:13:47;;;;;;;1.15;1.13;;;8.30;99.90;;;;;;5093890;28;20020;-75
2023/04/01 07:16:18;;;;;;;0.32;0.32;;;8.50;99.90;;;;;;5090014;28;20055;-72
2023/04/01 07:18:47;;;;;;;0.20;0.20;;;8.50;99.90;;;;;;5101188;28;20094;-74
2023/04/01 07:21:28;;;;;;;0.10;0.10;;;8.60;99.90;;;;;;5078205;28;20040;-73
2023/04/01 07:24:01;;;;;;;0.22;0.22;;;8.90;99.90;;;;;;5097060;28;20020;-74
2023/04/01 07:26:26;;;;;;;0.10;0.10;;;8.70;99.90;;;;;;5102988;28;20039;-72
2023/04/01 07:28:53;;;;;;;0.60;0.60;;;8.70;99.90;;;;;;5097996;28;20024;-75
2023/04/01 07:31:42;;;;;;;1.20;1.10;;;8.80;99.90;;;;;;5099377;28;20406;-73
2023/04/01 07:34:27;;;;;;;1.55;1.20;;;8.60;99.90;;;;;;5095572;28;20048;-73
2023/04/01 07:37:11;;;;;;;0.10;0.10;;;8.60;99.90;;;;;;5098362;28;20027;-74
2023/04/01 07:40:06;;;;;;;0.63;0.63;;;8.70;99.90;;;;;;5104628;28;20707;-72
2023/04/01 07:42:51;;;;;;;0.10;0.10;;;8.90;99.90;;;;;;5098122;28;20024;-74
2023/04/01 07:45:19;;;;;;;1.30;1.20;;;9.00;99.90;;;;;;5099532;28;20027;-74
2023/04/01 07:48:06;;;;;;;1.90;1.75;;;9.00;99.90;;;;;;5094604;28;20032;-75
2023/04/01 07:50:40;;;;;;;0.70;0.57;;;9.40;99.90;;;;;;5087587;28;20028;-74
2023/04/01 07:53:16;;;;;;;0.10;0.10;;;9.30;99.90;;;;;;5093940;28;20474;-74
2023/04/01 07:55:58;;;;;;;7.53;2.42;;;9.20;99.90;;;;;;5100385;28;20054;-74
2023/04/01 07:58:38;;;;;;;0.50;0.50;;;8.90;99.90;;;;;;5084969;28;20028;-75
2023/04/01 08:01:25;;;;;;;4.07;1.27;;;8.80;99.90;;;;;;5097674;28;20548;-75
2023/04/01 08:04:18;;;;;;;0.20;0.20;;;8.70;99.90;;;;;;5102021;28;20024;-74
2023/04/01 08:06:56;;;;;;;1.30;1.23;;;8.70;99.90;;;;;;5096453;28;20068;-76
2023/04/01 08:09:25;;;;;;;5.07;2.92;;;8.60;99.90;;;;;;5095689;28;20114;-73
2023/04/01 08:11:50;;;;;;;0.68;0.68;;;8.80;99.90;;;;;;5096373;28;20824;-73
2023/04/01 08:14:39;;;;;;;5.22;1.38;;;8.80;99.90;;;;;;5104292;28;20036;-73
2023/04/01 08:17:32;;;;;;;3.38;2.03;;;8.90;99.90;;;;;;5047186;28;20072;-76
2023/04/01 08:19:58;;;;;;;0.45;0.45;;;8.80;99.90;;;;;;5096588;28;20619;-73
2023/04/01 08:22:29;;;;;;;1.00;0.95;;;8.90;99.90;;;;;;5096529;28;20115;-73
2023/04/01 08:25:01;;;;;;;0.47;0.47;;;8.90;99.90;;;;;;5092511;28;20027;-76
2023/04/01 08:27:37;;;;;;;0.82;0.82;;;9.00;99.90;;;;;;5088619;28;20020;-74
2023/04/01 08:30:16;;;;;;;4.10;1.90;;;9.20;99.90;;;;;;5106133;28;20076;-73
2023/04/01 08:32:45;;;;;;;0.22;0.22;;;9.50;99.90;;;;;;5101824;28;20098;-76
2023/04/01 08:35:30;;;;;;;0.25;0.25;;;9.70;99.90;;;;;;5096260;28;20024;-73
2023/04/01 08:38:00;;;;;;;0.30;0.30;;;9.50;99.90;;;;;;5102964;28;20677;-73
2023/04/01 08:40:55;;;;;;;7.00;3.58;;;9.30;99.90;;;;;;5097616;28;20083;-74
2023/04/01 08:43:42;;;;;;;1.05;1.05;;;9.10;99.90;;;;;;5095861;28;20039;-74
2023/04/01 08:46:38;;;;;;;0.17;0.17;;;9.00;99.90;;;;;;5094651;28;20506;-73
2023/04/01 08:49:32;;;;;;;7.70;1.20;;;9.00;99.90;;;;;;5080984;28;20041;-73
2023/04/01 08:52:22;;;;;;;0.10;0.10;;;9.20;99.90;;;;;;5101644;28;20027;-73
2023/04/01 08:55:13;;;;;;;0.17;0.17;;;9.10;99.90;;;;;;5094873;28;20030;-73
2023/04/01 08:58:11;;;;;;;1.75;0.90;;;9.50;99.90;;;;;;5101803;28;20038;-73
2023/04/01 09:00:36;;;;;;;31.42;1.92;;;9.40;99.90;;;;;;5094787;28;20062;-72
2023/04/01 09:03:31;;;;;;;0.80;0.80;;;9.40;99.90;;;;;;5102034;28;20114;-72
2023/04/01 09:06:24;;;;;;;2.20;2.05;;;9.40;99.90;;;;;;5054125;27;20044;-73
2023/04/01 09:09:11;;;;;;;0.65;0.55;;;9.70;99.90;;;;;;5095545;28;20020;-74
2023/04/01 09:11:58;;;;;;;0.98;0.98;;;9.90;99.90;;;;;;5104088;28;20024;-72
2023/04/01 09:14:48;;;;;;;0.65;0.65;;;9.90;99.90;;;;;;5095712;28;20042;-74
2023/04/01 09:17:23;;;;;;;1.73;1.20;;;10.10;99.90;;;;;;5095313;28;20015;-74
2023/04/01 09:20:10;;;;;;;0.98;0.98;;;10.50;99.90;;;;;;5094498;28;20020;-73
2023/04/01 09:23:00;;;;;;;0.40;0.40;;;10.90;99.90;;;;;;5096367;28;20102;-75
2023/04/01 09:26:07;;;;;;;0.47;0.47;;;11.90;99.90;;;;;;5091758;28;20031;-74
2023/04/01 09:29:14;;;;;;;2.30;1.20;;;11.70;99.90;;;;;;5045886;28;20044;-75
2023/04/01 09:32:15;;;;;;;0.10;0.10;;;11.10;99.90;;;;;;5087861;28;20044;-73
2023/04/01 09:34:57;;;;;;;0.93;0.73;;;11.20;99.90;;;;;;5052354;28;20640;-75
2023/04/01 09:37:40;;;;;;;9.23;1.05;;;11.00;99.90;;;;;;5089407;28;20798;-75
2023/04/01 09:40:24;;;;;;;0.20;0.20;;;10.80;99.90;;;;;;5091893;28;20453;-74
2023/04/01 09:43:21;;;;;;;0.88;0.80;;;11.20;99.90;;;;;;5084571;28;20030;-74
2023/04/01 09:46:05;;;;;;;0.22;0.22;;;11.00;99.90;;;;;;5089218;28;20134;-72
2023/04/01 09:48:54;;;;;;;0.65;0.50;;;10.70;99.90;;;;;;5095764;28;20567;-75
2023/04/01 09:51:44;;;;;;;0.80;0.73;;;11.00;99.90;;;;;;5089680;28;20032;-76
2023/04/01 09:54:24;;;;;;;0.17;0.17;;;11.90;99.90;;;;;;5090817;28;20816;-76
2023/04/01 09:57:17;;;;;;;0.10;0.10;;;11.90;99.90;;;;;;5086651;28;20024;-73
2023/04/01 10:00:04;;;;;;;0.38;0.38;;;11.70;99.90;;;;;;5085961;28;20024;-74
2023/04/01 10:03:08;;;;;;;0.08;0.08;;;11.20;99.90;;;;;;5087238;28;20395;-76
2023/04/01 10:05:52;;;;;;;0.10;0.10;;;10.00;99.90;;;;;;5085549;28;20043;-75
2023/04/01 10:08:40;;;;;;;5.78;0.80;;;9.50;99.90;;;;;;5087451;28;20028;-73
2023/04/01 10:11:34;;;;;;;1.08;0.77;;;9.60;99.90;;;;;;5101025;27;20081;-73
2023/04/01 10:14:03;;;;;;;2.90;1.45;;;9.80;99.90;;;;;;5094472;28;20067;-76
2023/04/01 10:17:00;;;;;;;0.10;0.10;;;10.30;99.90;;;;;;5085314;28;20032;-75
2023/04/01 10:19:50;;;;;;;0.20;0.20;;;10.70;99.90;;;;;;5086997;28;20027;-73
2023/04/01 10:22:43;;;;;;;0.17;0.17;;;11.80;99.90;;;;;;5090013;28;20055;-75
2023/04/01 10:25:23;;;;;;;0.10;0.10;;;11.90;99.90;;;;;;5068705;28;20468;-74
2023/04/01 10:28:26;;;;;;;5.15;1.00;;;12.40;99.90;;;;;;5098833;28;20043;-74
2023/04/01 10:31:24;;;;;;;0.45;0.45;;;12.60;99.90;;;;;;5090114;28;20590;-74
2023/04/01 10:34:18;;;;;;;0.00;0.00;;;12.70;99.90;;;;;;5084825;28;20973;-72
2023/04/01 10:36:56;;;;;;;0.68;0.68;;;13.10;99.90;;;;;;5094265;28;20038;-74
2023/04/01 10:39:37;;;;;;;2.17;1.27;;;12.90;99.90;;;;;;5093243;28;20441;-73
2023/04/01 10:42:17;;;;;;;0.52;0.50;;;13.90;99.90;;;;;;5094933;28;20015;-72
2023/04/01 10:45:02;;;;;;;3.10;1.13;;;14.30;99.90;;;;;;5091121;28;20081;-73
2023/04/01 10:47:56;;;;;;;0.30;0.30;;;14.40;99.90;;;;;;5089292;28;20044;-73
2023/04/01 10:50:58;;;;;;;1.63;1.35;;;14.90;99.90;;;;;;5085026;28;20776;-74
2023/04/01 10:53:43;;;;;;;0.30;0.30;;;13.80;99.90;;;;;;5097894;28;20101;-73
2023/04/01 10:56:42;;;;;;;1.17;1.15;;;13.90;99.90;;;;;;5090614;28;20436;-74
2023/04/01 10:59:29;;;;;;;0.08;0.08;;;13.80;99.90;;;;;;5089964;28;20077;-73
2023/04/01 11:02:36;;;;;;;0.80;0.80;;;13.10;99.90;;;;;;5087319;28;20031;-77
2023/04/01 11:05:17;;;;;;;0.57;0.57;;;13.10;99.90;;;;;;5091776;28;20031;-72
2023/04/01 11:07:57;;;;;;;0.28;0.28;;;13.20;99.90;;;;;;5089809;28;20423;-73
2023/04/01 11:10:40;;;;;;;2.25;1.95;;;13.60;99.90;;;;;;5094235;28;20050;-73
2023/04/01 11:13:16;;;;;;;1.20;0.98;;;13.80;99.90;;;;;;5101592;28;20431;-76
2023/04/01 11:16:03;;;;;;;0.25;0.25;;;14.10;99.90;;;;;;5097606;28;20035;-72
2023/04/01 11:18:42;;;;;;;0.57;0.57;;;13.40;99.90;;;;;;5101154;28;20019;-72
2023/04/01 11:21:29;;;;;;;0.70;0.70;;;12.50;99.90;;;;;;5088735;28;20031;-74
2023/04/01 11:23:55;;;;;;;0.05;0.05;;;11.80;99.90;;;;;;5101388;28;20016;-73
2023/04/01 11:26:51;;;;;;;0.22;0.20;;;9.60;99.90;;;;;;5096791;28;20477;-74
2023/04/01 11:29:41;;;;;;;1.33;1.10;;;9.20;99.90;;;;;;5101485;28;20035;-72
2023/04/01 11:32:24;;;;;;;0.15;0.15;;;9.90;99.90;;;;;;5094027;28;20020;-73
2023/04/01 11:34:49;;;;;;;1.05;1.00;;;10.80;99.90;;;;;;5092655;28;20046;-73
2023/04/01 11:37:24;;;;;;;1.50;1.42;;;10.70;99.90;;;;;;5096713;28;20576;-74
2023/04/01 11:40:14;;;;;;;0.60;0.60;;;10.80;99.90;;;;;;5097521;28;20028;-72
2023/04/01 11:43:10;;;;;;;0.98;0.93;;;10.60;99.90;;;;;;5093713;28;20043;-73
2023/04/01 11:45:56;;;;;;;0.30;0.30;;;11.10;99.90;;;;;;5094404;28;20023;-74
2023/04/01 11:48:44;;;;;;;3.63;1.75;;;10.90;99.90;;;;;;5040847;28;20050;-74
2023/04/01 11:51:22;;;;;;;0.10;0.10;;;11.60;99.90;;;;;;5085279;28;20056;-77
2023/04/01 11:54:28;;;;;;;0.20;0.20;;;11.20;99.90;;;;;;5100877;28;20020;-72
2023/04/01 11:57:42;;;;;;;0.10;0.10;;;10.90;99.90;;;;;;5091010;28;20380;-72
2023/04/01 12:00:37;;;;;;;4.78;1.45;;;10.00;99.90;;;;;;5095193;28;20115;-72
2023/04/01 12:03:08;;;;;;;0.10;0.10;;;9.30;99.90;;;;;;5099778;28;20024;-72
2023/04/01 12:06:00;;;;;;;0.10;0.10;;;9.60;99.90;;;;;;5096046;28;20064;-75
2023/04/01 12:08:53;;;;;;;0.32;0.32;;;9.40;99.90;;;;;;5097325;28;20039;-75
2023/04/01 12:11:39;;;;;;;0.10;0.10;;;10.10;99.90;;;;;;5099503;28;20046;-73
2023/04/01 12:14:26;;;;;;;0.17;0.17;;;10.80;99.90;;;;;;5091455;28;20019;-75
2023/04/01 12:16:54;;;;;;;;;;;11.60;99.90;;;;;;5076115;28;20026;-74
2023/04/01 12:19:23;;;;;;;0.20;0.20;;;11.50;99.90;;;;;;5087926;28;19950;-75
2023/04/01 12:22:10;;;;;;;0.10;0.10;;;11.30;99.90;;;;;;5095072;28;20078;-72
2023/04/01 12:24:35;;;;;;;0.25;0.25;;;11.10;99.90;;;;;;5092683;28;20113;-77
2023/04/01 12:27:27;;;;;;;0.30;0.30;;;11.10;99.90;;;;;;5099036;28;20037;-74
2023/04/01 12:30:24;;;;;;;0.10;0.10;;;11.40;99.90;;;;;;5094322;28;20012;-73
2023/04/01 12:32:57;;;;;;;0.10;0.10;;;11.10;99.90;;;;;;5087216;28;20055;-72
2023/04/01 12:35:47;;;;;;;0.20;0.20;;;11.30;99.90;;;;;;5090014;28;20038;-73
2023/04/01 12:38:18;;;;;;;0.10;0.10;;;11.30;99.90;;;;;;5083763;28;20395;-72
2023/04/01 12:40:46;;;;;;;2.83;1.17;;;11.70;99.90;;;;;;5087218;28;20059;-74
2023/04/01 12:43:41;;;;;;;0.10;0.10;;;12.20;99.90;;;;;;5092536;28;20549;-74
2023/04/01 12:46:13;;;;;;;0.10;0.10;;;12.10;99.90;;;;;;5096315;28;20115;-75
2023/04/01 12:49:10;;;;;;;0.75;0.75;;;12.20;99.90;;;;;;5094237;28;20031;-72
2023/04/01 12:51:51;;;;;;;0.03;0.03;;;12.10;99.90;;;;;;5069535;28;20043;-74
2023/04/01 12:54:31;;;;;;;0.10;0.10;;;11.50;99.90;;;;;;5088319;28;20040;-74
2023/04/01 12:57:18;;;;;;;0.10;0.10;;;10.10;99.90;;;;;;5088633;28;20039;-75
2023/04/01 13:00:37;;;;;;;0.10;0.10;;;8.70;99.90;;;;;;5083106;28;20096;-73
2023/04/01 13:03:43;;;;;;;0.60;0.57;;;8.30;99.90;;;;;;4995767;28;20029;-73
2023/04/01 13:06:21;;;;;;;;;;;8.20;99.90;;;;;;5021105;28;20112;-74
2023/04/01 13:09:08;;;;;;;0.20;0.20;;;8.30;99.90;;;;;;5076254;28;19915;-74
2023/04/01 13:11:54;;;;;;;1.27;0.60;;;8.30;99.90;;;;;;5095109;28;20023;-73
2023/04/01 13:14:47;;;;;;;0.20;0.20;;;8.30;99.90;;;;;;5096855;28;20910;-74
2023/04/01 13:17:22;;;;;;;0.30;0.30;;;8.50;99.90;;;;;;5075193;28;20032;-74
2023/04/01 13:19:53;;;;;;;0.10;0.10;;;9.10;99.90;;;;;;5080232;28;20031;-75
2023/04/01 13:22:56;;;;;;;0.30;0.30;;;9.30;99.90;;;;;;5099099;28;20032;-79
2023/04/01 13:25:39;;;;;;;0.80;0.80;;;10.10;99.90;;;;;;5100020;28;20139;-78
2023/04/01 13:28:21;;;;;;;0.10;0.10;;;10.80;99.90;;;;;;5103191;28;20031;-74
2023/04/01 13:31:07;;;;;;;0.10;0.10;;;11.20;99.90;;;;;;5095114;28;20218;-75
2023/04/01 13:33:43;;;;;;;10.70;1.08;;;11.00;99.90;;;;;;5093527;28;20056;-74
2023/04/01 13:36:28;;;;;;;0.10;0.10;;;11.00;99.90;;;;;;5091816;28;20034;-77
2023/04/01 13:39:00;;;;;;;0.10;0.10;;;11.00;99.90;;;;;;5089991;28;20109;-75
2023/04/01 13:41:43;;;;;;;0.20;0.20;;;10.60;99.90;;;;;;5094991;28;20031;-74
2023/04/01 13:44:19;;;;;;;0.25;0.25;;;10.60;99.90;;;;;;5094224;28;20126;-77
2023/04/01 13:47:10;;;;;;;0.40;0.40;;;10.30;99.90;;;;;;5091028;28;20701;-76